Main page
METAR-TAF:

METAR-TAF

Airports :

Batumi International Airport

Batumi, Georgia

latitude: 41-36-37N, longitude: 041-35-58E, elevation: 32 m

Current weather observation

The report was made 38 minutes ago, at 02:00 UTC
Wind 6 kt from the East/Southeast
Temperature 21°C
Humidity 83%
Pressure 1010 hPa
Visibility 10 km or more
Broken clouds at a height of 5400 ft

METAR: UGSB 240200Z 12006KT 9999 BKN054 21/18 Q1010 NOSIG

Time: 06:38 (02:38 UTC)

Forecast

The report was made 3 hours and 38 minutes ago, at 23:00 UTC
Forecast valid from 24 at 00 UTC to 24 at 24 UTC
Wind 10 kt from the East/Southeast
Visibility 10 km or more
Broken clouds at a height of 3000 ft
Becoming
from 24 at 05 UTC to 24 at 07 UTC
Wind 7 kt from the West/Northwest

TAF: UGSB 232300Z 2400/2424 12010KT 9999 BKN030 TX27/2412Z TN20/2401Z BECMG 2405/2407 30007KT

Weather observations and forecasts of more than 4000 airports (METAR and TAF reports).

The available stations are represented by yellow and red dots on the map.

Hover mouse over dot to see the name of the station.

Then click to see weather observations and forecasts.

To change the map : click on the green buttons with a black cross to zoom in, on the green button with a dash to zoom out, or on the green arrows for adjacent maps.


METAR-TAF: